No particular awareness of the weather is required.    There are no Weather-warnings


Meteo18 Weather Cam more information Meteo18 Weather Cam


Thunder radar more information blitzortung!


Rain radar more information rain snow radar


Visit our other weather sites:

Template documentation
and downloads

And another site



Weather Underground History page Text

Daily Summary for June 15, 2017 Units:  Metric    English   Both
« Previous Day
Next Day »
Daily Weekly Monthly Yearly Custom
  High: Low: Average:
Temperature: 30.2 °C 15.8 °C 23.6 °C
Dew Point: 20.9 °C 11.5 °C 16.8 °C
Humidity: 96 % 33 % 69 %
Wind Speed: 30.6 km/h 0.0 km/h 5.7 km/h
Wind Gust: 30.6 km/h - -
Wind:- - West
Pressure: 1021.2 hPa 1016.1 hPa -
Precipitation: 0.0 mm    
Historical Graphs
 
 
Tabular Data for June 15, 2017
Time Temperature Dew Point Pressure Wind Wind Speed Wind Gust Humidity Rainfall Rate (Hourly)
00:02 20.1 °C 18.2 °C 1016.5 hPa Calm     89 % 0.0 mm
00:12 19.8 °C 17.8 °C 1016.5 hPa Calm     88 % 0.0 mm
00:17 19.7 °C 17.8 °C 1016.5 hPa Calm     89 % 0.0 mm
00:22 19.7 °C 18.0 °C 1016.8 hPa Calm     90 % 0.0 mm
00:27 19.6 °C 17.9 °C 1016.5 hPa Calm     90 % 0.0 mm
00:32 19.4 °C 17.7 °C 1016.8 hPa Calm     90 % 0.0 mm
00:37 19.3 °C 17.6 °C 1016.5 hPa Calm     90 % 0.0 mm
00:42 19.2 °C 17.5 °C 1016.8 hPa Calm     90 % 0.0 mm
00:52 19.0 °C 17.5 °C 1016.8 hPa Calm     91 % 0.0 mm
00:57 19.0 °C 17.5 °C 1016.8 hPa Calm     91 % 0.0 mm
01:02 18.9 °C 17.4 °C 1016.8 hPa Calm     91 % 0.0 mm
01:07 18.8 °C 17.5 °C 1016.8 hPa Calm     92 % 0.0 mm
01:12 18.8 °C 17.5 °C 1016.8 hPa Calm     92 % 0.0 mm
01:17 18.8 °C 17.5 °C 1016.8 hPa NNW 1.6 km/h   92 % 0.0 mm
01:22 18.9 °C 17.7 °C 1016.8 hPa Calm   1.6 km/h 93 % 0.0 mm
01:32 18.8 °C 17.6 °C 1016.5 hPa North 1.6 km/h 1.6 km/h 93 % 0.0 mm
01:37 18.7 °C 17.4 °C 1016.5 hPa Calm   1.6 km/h 92 % 0.0 mm
01:42 18.5 °C 17.3 °C 1016.8 hPa Calm   1.6 km/h 93 % 0.0 mm
01:47 18.4 °C 17.2 °C 1016.8 hPa Calm   1.6 km/h 93 % 0.0 mm
01:52 18.3 °C 17.1 °C 1016.8 hPa Calm   1.6 km/h 93 % 0.0 mm
01:57 18.2 °C 17.0 °C 1016.8 hPa Calm   1.6 km/h 93 % 0.0 mm
02:02 18.1 °C 16.9 °C 1016.8 hPa Calm   1.6 km/h 93 % 0.0 mm
02:07 18.1 °C 17.1 °C 1016.8 hPa Calm     94 % 0.0 mm
02:12 18.1 °C 16.9 °C 1016.8 hPa Calm     93 % 0.0 mm
02:17 17.9 °C 16.8 °C 1016.5 hPa Calm     93 % 0.0 mm
02:22 17.9 °C 16.9 °C 1016.5 hPa Calm     94 % 0.0 mm
02:27 17.9 °C 16.9 °C 1016.5 hPa Calm     94 % 0.0 mm
02:32 17.8 °C 16.8 °C 1016.5 hPa Calm     94 % 0.0 mm
02:37 17.8 °C 16.8 °C 1016.5 hPa Calm     94 % 0.0 mm
02:42 17.8 °C 16.8 °C 1016.5 hPa Calm     94 % 0.0 mm
02:52 17.8 °C 16.8 °C 1016.5 hPa Calm     94 % 0.0 mm
02:57 17.7 °C 16.7 °C 1016.5 hPa Calm     94 % 0.0 mm
03:02 17.6 °C 16.6 °C 1016.5 hPa Calm     94 % 0.0 mm
03:07 17.4 °C 16.4 °C 1016.5 hPa Calm     94 % 0.0 mm
03:12 17.4 °C 16.6 °C 1016.5 hPa Calm     95 % 0.0 mm
03:17 17.5 °C 16.7 °C 1016.5 hPa Calm     95 % 0.0 mm
03:22 17.5 °C 16.7 °C 1016.1 hPa Calm     95 % 0.0 mm
03:32 17.1 °C 16.1 °C 1016.1 hPa Calm     94 % 0.0 mm
03:42 16.9 °C 16.1 °C 1016.1 hPa Calm     95 % 0.0 mm
03:52 17.0 °C 16.2 °C 1016.5 hPa Calm     95 % 0.0 mm
03:57 16.9 °C 16.1 °C 1016.5 hPa Calm     95 % 0.0 mm
04:02 16.8 °C 16.0 °C 1016.5 hPa Calm     95 % 0.0 mm
04:07 16.8 °C 16.0 °C 1016.5 hPa Calm     95 % 0.0 mm
04:12 16.9 °C 16.3 °C 1016.5 hPa Calm     96 % 0.0 mm
04:17 16.7 °C 15.9 °C 1016.5 hPa Calm     95 % 0.0 mm
04:27 16.4 °C 15.6 °C 1016.5 hPa Calm     95 % 0.0 mm
04:32 16.4 °C 15.8 °C 1016.5 hPa Calm     96 % 0.0 mm
04:37 16.5 °C 15.9 °C 1016.5 hPa Calm     96 % 0.0 mm
04:42 16.6 °C 16.0 °C 1016.5 hPa Calm     96 % 0.0 mm
04:47 16.7 °C 16.1 °C 1016.5 hPa Calm     96 % 0.0 mm
04:52 16.6 °C 16.0 °C 1016.5 hPa Calm     96 % 0.0 mm
04:57 16.7 °C 16.1 °C 1016.5 hPa Calm     96 % 0.0 mm
05:02 16.7 °C 16.1 °C 1016.5 hPa Calm     96 % 0.0 mm
05:12 16.4 °C 15.6 °C 1016.5 hPa Calm     95 % 0.0 mm
05:17 16.4 °C 15.8 °C 1016.5 hPa Calm     96 % 0.0 mm
05:22 16.4 °C 15.8 °C 1016.5 hPa Calm     96 % 0.0 mm
05:32 16.3 °C 15.7 °C 1016.5 hPa Calm     96 % 0.0 mm
05:37 16.4 °C 15.8 °C 1016.5 hPa Calm     96 % 0.0 mm
05:42 16.4 °C 15.8 °C 1016.5 hPa Calm     96 % 0.0 mm
05:47 16.3 °C 15.5 °C 1016.5 hPa Calm     95 % 0.0 mm
05:52 16.2 °C 15.6 °C 1016.5 hPa Calm     96 % 0.0 mm
05:57 16.2 °C 15.6 °C 1016.5 hPa Calm     96 % 0.0 mm
06:02 16.2 °C 15.6 °C 1016.5 hPa Calm     96 % 0.0 mm
06:12 15.9 °C 15.3 °C 1016.8 hPa Calm     96 % 0.0 mm
06:17 15.8 °C 15.2 °C 1016.8 hPa Calm     96 % 0.0 mm
06:22 15.8 °C 15.2 °C 1016.8 hPa Calm     96 % 0.0 mm
06:27 15.9 °C 15.3 °C 1016.8 hPa Calm     96 % 0.0 mm
06:32 16.0 °C 15.4 °C 1016.8 hPa Calm     96 % 0.0 mm
06:37 16.2 °C 15.6 °C 1016.8 hPa Calm     96 % 0.0 mm
06:42 16.5 °C 15.9 °C 1016.8 hPa Calm     96 % 0.0 mm
06:47 16.7 °C 16.1 °C 1016.8 hPa Calm     96 % 0.0 mm
06:52 16.8 °C 16.0 °C 1016.8 hPa Calm     95 % 0.0 mm
06:57 16.8 °C 16.0 °C 1016.8 hPa Calm     95 % 0.0 mm
07:02 16.9 °C 16.1 °C 1016.8 hPa Calm     95 % 0.0 mm
07:07 16.9 °C 16.1 °C 1016.8 hPa Calm     95 % 0.0 mm
07:12 17.2 °C 16.6 °C 1016.8 hPa Calm     96 % 0.0 mm
07:17 17.4 °C 16.8 °C 1017.2 hPa Calm     96 % 0.0 mm
07:22 17.6 °C 16.8 °C 1017.2 hPa Calm     95 % 0.0 mm
07:32 18.1 °C 17.3 °C 1017.2 hPa Calm     95 % 0.0 mm
07:37 18.5 °C 17.5 °C 1017.2 hPa SW 1.6 km/h   94 % 0.0 mm
07:42 18.5 °C 17.3 °C 1017.2 hPa SSW 1.6 km/h   93 % 0.0 mm
07:47 18.7 °C 17.5 °C 1017.2 hPa SSW 4.8 km/h 4.8 km/h 93 % 0.0 mm
07:52 18.7 °C 17.4 °C 1017.2 hPa Calm   4.8 km/h 92 % 0.0 mm
07:57 18.8 °C 17.5 °C 1017.2 hPa Calm   6.4 km/h 92 % 0.0 mm
08:02 19.1 °C 17.8 °C 1017.2 hPa Calm   6.4 km/h 92 % 0.0 mm
08:12 19.5 °C 18.0 °C 1017.2 hPa SW 1.6 km/h 6.4 km/h 91 % 0.0 mm
08:17 19.8 °C 18.1 °C 1017.2 hPa Calm   4.8 km/h 90 % 0.0 mm
08:22 20.3 °C 18.4 °C 1017.2 hPa South 1.6 km/h 3.2 km/h 89 % 0.0 mm
08:27 20.4 °C 18.2 °C 1017.2 hPa Calm   3.2 km/h 87 % 0.0 mm
08:32 20.8 °C 18.4 °C 1017.2 hPa Calm   3.2 km/h 86 % 0.0 mm
08:42 21.4 °C 18.6 °C 1017.2 hPa Calm   3.2 km/h 84 % 0.0 mm
08:47 21.4 °C 18.6 °C 1017.2 hPa SSW 1.6 km/h 3.2 km/h 84 % 0.0 mm
08:52 21.4 °C 18.8 °C 1017.5 hPa SW 4.8 km/h 4.8 km/h 85 % 0.0 mm
08:57 21.5 °C 18.9 °C 1017.5 hPa Calm   3.2 km/h 85 % 0.0 mm
09:02 21.9 °C 19.3 °C 1017.2 hPa Calm   4.8 km/h 85 % 0.0 mm
09:12 22.4 °C 19.4 °C 1017.2 hPa SSE 1.6 km/h 4.8 km/h 83 % 0.0 mm
09:17 22.6 °C 19.6 °C 1017.5 hPa SW 3.2 km/h 4.8 km/h 83 % 0.0 mm
09:27 22.6 °C 19.6 °C 1017.5 hPa SSW 4.8 km/h 11.3 km/h 83 % 0.0 mm
09:32 22.8 °C 19.6 °C 1017.5 hPa SW 6.4 km/h 11.3 km/h 82 % 0.0 mm
09:37 22.8 °C 19.8 °C 1017.5 hPa SSW 3.2 km/h 11.3 km/h 83 % 0.0 mm
09:42 22.9 °C 19.9 °C 1017.5 hPa SW 4.8 km/h 11.3 km/h 83 % 0.0 mm
09:47 23.1 °C 19.9 °C 1017.5 hPa SSW 4.8 km/h 11.3 km/h 82 % 0.0 mm
09:52 23.2 °C 19.8 °C 1017.8 hPa SSW 6.4 km/h 11.3 km/h 81 % 0.0 mm
10:02 23.6 °C 20.1 °C 1017.5 hPa SSW 4.8 km/h 11.3 km/h 81 % 0.0 mm
10:12 24.1 °C 20.6 °C 1017.5 hPa SW 4.8 km/h 12.9 km/h 81 % 0.0 mm
10:17 24.3 °C 20.4 °C 1017.5 hPa SW 4.8 km/h 11.3 km/h 79 % 0.0 mm
10:22 24.6 °C 20.5 °C 1017.5 hPa SSW 11.3 km/h 11.3 km/h 78 % 0.0 mm
10:32 25.0 °C 20.9 °C 1017.5 hPa SW 3.2 km/h 11.3 km/h 78 % 0.0 mm
10:42 25.3 °C 20.5 °C 1017.5 hPa SSW 8.0 km/h 11.3 km/h 75 % 0.0 mm
10:47 25.6 °C 20.6 °C 1017.5 hPa SW 8.0 km/h 14.5 km/h 74 % 0.0 mm
10:52 25.9 °C 20.7 °C 1017.5 hPa SW 4.8 km/h 14.5 km/h 73 % 0.0 mm
10:57 26.1 °C 20.2 °C 1017.8 hPa WSW 6.4 km/h 14.5 km/h 70 % 0.0 mm
11:02 26.3 °C 20.4 °C 1017.8 hPa WSW 6.4 km/h 12.9 km/h 70 % 0.0 mm
11:07 26.6 °C 20.9 °C 1017.8 hPa SSW 6.4 km/h 12.9 km/h 71 % 0.0 mm
11:12 26.8 °C 20.9 °C 1017.8 hPa SSW 8.0 km/h 12.9 km/h 70 % 0.0 mm
11:17 27.1 °C 20.7 °C 1017.8 hPa SSW 8.0 km/h 16.1 km/h 68 % 0.0 mm
11:22 27.2 °C 20.5 °C 1017.8 hPa SW 11.3 km/h 16.1 km/h 67 % 0.0 mm
11:32 27.2 °C 20.8 °C 1017.8 hPa WNW 9.7 km/h 17.7 km/h 68 % 0.0 mm
11:37 27.4 °C 20.5 °C 1017.8 hPa West 6.4 km/h 17.7 km/h 66 % 0.0 mm
11:42 27.6 °C 20.4 °C 1017.8 hPa WSW 12.9 km/h 17.7 km/h 65 % 0.0 mm
11:52 27.7 °C 20.5 °C 1017.8 hPa SSW 14.5 km/h 16.1 km/h 65 % 0.0 mm
11:57 27.7 °C 20.5 °C 1017.8 hPa SW 8.0 km/h 16.1 km/h 65 % 0.0 mm
12:02 27.7 °C 20.3 °C 1017.8 hPa West 11.3 km/h 16.1 km/h 64 % 0.0 mm
12:12 28.1 °C 20.9 °C 1017.8 hPa SW 11.3 km/h 20.9 km/h 65 % 0.0 mm
12:17 28.1 °C 20.4 °C 1017.8 hPa SW 12.9 km/h 20.9 km/h 63 % 0.0 mm
12:22 28.3 °C 20.1 °C 1017.8 hPa SSW 1.6 km/h 17.7 km/h 61 % 0.0 mm
12:27 28.5 °C 20.0 °C 1017.8 hPa West 11.3 km/h 17.7 km/h 60 % 0.0 mm
12:32 28.3 °C 19.2 °C 1017.8 hPa WNW 8.0 km/h 17.7 km/h 58 % 0.0 mm
12:42 28.4 °C 19.3 °C 1017.8 hPa SW 8.0 km/h 17.7 km/h 58 % 0.0 mm
12:47 28.5 °C 19.4 °C 1017.8 hPa WNW 11.3 km/h 17.7 km/h 58 % 0.0 mm
12:52 28.7 °C 19.6 °C 1017.8 hPa WSW 11.3 km/h 17.7 km/h 58 % 0.0 mm
13:02 28.6 °C 19.2 °C 1017.8 hPa WSW 12.9 km/h 20.9 km/h 57 % 0.0 mm
13:07 28.9 °C 19.2 °C 1017.8 hPa West 12.9 km/h 20.9 km/h 56 % 0.0 mm
13:12 29.0 °C 19.0 °C 1017.8 hPa West 14.5 km/h 22.5 km/h 55 % 0.0 mm
13:17 29.0 °C 19.3 °C 1017.8 hPa West 6.4 km/h 22.5 km/h 56 % 0.0 mm
13:22 29.0 °C 19.0 °C 1017.8 hPa SSW 14.5 km/h 24.1 km/h 55 % 0.0 mm
13:27 29.0 °C 19.0 °C 1017.8 hPa SSW 17.7 km/h 24.1 km/h 55 % 0.0 mm
13:32 28.9 °C 19.2 °C 1017.8 hPa SSW 4.8 km/h 24.1 km/h 56 % 0.0 mm
13:37 29.2 °C 18.9 °C 1017.8 hPa West 9.7 km/h 24.1 km/h 54 % 0.0 mm
13:42 29.1 °C 18.5 °C 1017.8 hPa WSW 14.5 km/h 25.7 km/h 53 % 0.0 mm
13:47 29.3 °C 18.7 °C 1017.8 hPa SSW 4.8 km/h 25.7 km/h 53 % 0.0 mm
13:52 29.5 °C 18.9 °C 1017.8 hPa West 6.4 km/h 25.7 km/h 53 % 0.0 mm
13:57 29.9 °C 19.0 °C 1017.8 hPa SW 12.9 km/h 25.7 km/h 52 % 0.0 mm
14:02 29.4 °C 18.2 °C 1017.8 hPa WSW 17.7 km/h 25.7 km/h 51 % 0.0 mm
14:07 29.4 °C 18.2 °C 1017.8 hPa West 11.3 km/h 27.4 km/h 51 % 0.0 mm
14:12 29.6 °C 18.4 °C 1017.8 hPa WSW 12.9 km/h 27.4 km/h 51 % 0.0 mm
14:17 29.7 °C 18.2 °C 1017.8 hPa West 16.1 km/h 27.4 km/h 50 % 0.0 mm
14:22 29.6 °C 17.8 °C 1017.8 hPa SW 16.1 km/h 30.6 km/h 49 % 0.0 mm
14:32 29.5 °C 18.0 °C 1017.8 hPa WNW 12.9 km/h 30.6 km/h 50 % 0.0 mm
14:37 29.7 °C 18.2 °C 1017.8 hPa SW 19.3 km/h 29.0 km/h 50 % 0.0 mm
14:42 29.6 °C 18.1 °C 1017.8 hPa WSW 16.1 km/h 29.0 km/h 50 % 0.0 mm
14:47 29.6 °C 18.1 °C 1017.8 hPa SW 9.7 km/h 29.0 km/h 50 % 0.0 mm
14:52 29.6 °C 17.8 °C 1017.5 hPa SW 14.5 km/h 30.6 km/h 49 % 0.0 mm
14:57 29.5 °C 18.0 °C 1017.5 hPa West 17.7 km/h 30.6 km/h 50 % 0.0 mm
15:02 29.5 °C 18.0 °C 1017.5 hPa West 11.3 km/h 30.6 km/h 50 % 0.0 mm
15:12 29.6 °C 17.8 °C 1017.5 hPa WNW 9.7 km/h 24.1 km/h 49 % 0.0 mm
15:17 29.7 °C 17.5 °C 1017.5 hPa WNW 24.1 km/h 25.7 km/h 48 % 0.0 mm
15:22 29.6 °C 18.4 °C 1017.5 hPa SSW 11.3 km/h 25.7 km/h 51 % 0.0 mm
15:32 29.8 °C 17.6 °C 1017.8 hPa West 30.6 km/h 30.6 km/h 48 % 0.0 mm
15:37 29.5 °C 17.3 °C 1017.5 hPa WSW 9.7 km/h 30.6 km/h 48 % 0.0 mm
15:42 29.5 °C 17.0 °C 1017.5 hPa WNW 16.1 km/h 30.6 km/h 47 % 0.0 mm
15:52 29.7 °C 16.8 °C 1017.5 hPa WNW 20.9 km/h 29.0 km/h 46 % 0.0 mm
15:57 29.6 °C 16.8 °C 1017.5 hPa West 16.1 km/h 29.0 km/h 46 % 0.0 mm
16:02 29.7 °C 16.1 °C 1017.5 hPa West 6.4 km/h 27.4 km/h 44 % 0.0 mm
16:12 29.8 °C 14.4 °C 1017.5 hPa West 14.5 km/h 30.6 km/h 39 % 0.0 mm
16:17 30.1 °C 13.8 °C 1017.5 hPa WSW 14.5 km/h 29.0 km/h 37 % 0.0 mm
16:22 30.2 °C 13.9 °C 1017.8 hPa West 17.7 km/h 25.7 km/h 37 % 0.0 mm
16:32 30.2 °C 12.6 °C 1017.8 hPa West 8.0 km/h 27.4 km/h 34 % 0.0 mm
16:37 30.1 °C 12.1 °C 1017.8 hPa West 12.9 km/h 27.4 km/h 33 % 0.0 mm
16:42 30.2 °C 12.6 °C 1017.5 hPa WNW 17.7 km/h 27.4 km/h 34 % 0.0 mm
16:47 30.2 °C 12.6 °C 1017.5 hPa West 12.9 km/h 22.5 km/h 34 % 0.0 mm
16:52 30.1 °C 12.5 °C 1017.8 hPa WSW 14.5 km/h 25.7 km/h 34 % 0.0 mm
16:57 30.0 °C 12.0 °C 1017.8 hPa West 14.5 km/h 25.7 km/h 33 % 0.0 mm
17:02 29.8 °C 12.7 °C 1017.8 hPa West 9.7 km/h 22.5 km/h 35 % 0.0 mm
17:07 29.5 °C 12.4 °C 1017.8 hPa WSW 14.5 km/h 22.5 km/h 35 % 0.0 mm
17:12 29.2 °C 13.0 °C 1017.8 hPa West 11.3 km/h 25.7 km/h 37 % 0.0 mm
17:17 29.3 °C 13.5 °C 1017.8 hPa West 11.3 km/h 25.7 km/h 38 % 0.0 mm
17:22 29.3 °C 13.9 °C 1017.8 hPa WNW 12.9 km/h 24.1 km/h 39 % 0.0 mm
17:27 29.2 °C 13.8 °C 1017.8 hPa West 20.9 km/h 25.7 km/h 39 % 0.0 mm
17:32 29.4 °C 14.0 °C 1017.8 hPa WNW 20.9 km/h 25.7 km/h 39 % 0.0 mm
17:37 29.6 °C 14.2 °C 1017.8 hPa West 12.9 km/h 27.4 km/h 39 % 0.0 mm
17:42 29.7 °C 13.9 °C 1017.8 hPa WNW 11.3 km/h 27.4 km/h 38 % 0.0 mm
17:47 29.6 °C 14.2 °C 1017.8 hPa West 9.7 km/h 27.4 km/h 39 % 0.0 mm
17:52 29.6 °C 14.6 °C 1017.8 hPa West 17.7 km/h 25.7 km/h 40 % 0.0 mm
17:57 29.6 °C 15.3 °C 1017.8 hPa WNW 14.5 km/h 27.4 km/h 42 % 0.0 mm
18:02 29.6 °C 15.0 °C 1017.8 hPa West 6.4 km/h 27.4 km/h 41 % 0.0 mm
18:07 29.7 °C 15.4 °C 1017.8 hPa WNW 8.0 km/h 27.4 km/h 42 % 0.0 mm
18:12 29.7 °C 15.8 °C 1017.8 hPa West 11.3 km/h 25.7 km/h 43 % 0.0 mm
18:17 29.4 °C 15.9 °C 1017.8 hPa WNW 19.3 km/h 25.7 km/h 44 % 0.0 mm
18:22 29.4 °C 15.9 °C 1017.8 hPa WNW 19.3 km/h 25.7 km/h 44 % 0.0 mm
18:27 29.3 °C 16.1 °C 1017.8 hPa NW 12.9 km/h 20.9 km/h 45 % 0.0 mm
18:32 29.4 °C 16.2 °C 1017.8 hPa WNW 9.7 km/h 27.4 km/h 45 % 0.0 mm
18:37 29.1 °C 16.3 °C 1017.8 hPa West 12.9 km/h 27.4 km/h 46 % 0.0 mm
18:42 28.8 °C 16.0 °C 1017.8 hPa NW 4.8 km/h 27.4 km/h 46 % 0.0 mm
18:52 29.1 °C 15.6 °C 1017.8 hPa West 6.4 km/h 22.5 km/h 44 % 0.0 mm
19:02 29.2 °C 16.0 °C 1018.2 hPa WNW 14.5 km/h 25.7 km/h 45 % 0.0 mm
19:07 29.2 °C 16.0 °C 1017.8 hPa NW 12.9 km/h 25.7 km/h 45 % 0.0 mm
19:12 28.9 °C 15.4 °C 1018.2 hPa West 17.7 km/h 25.7 km/h 44 % 0.0 mm
19:17 28.8 °C 15.7 °C 1018.2 hPa WNW 12.9 km/h 22.5 km/h 45 % 0.0 mm
19:22 28.8 °C 16.0 °C 1017.8 hPa NNW 3.2 km/h 22.5 km/h 46 % 0.0 mm
19:27 29.0 °C 16.2 °C 1017.8 hPa NW 8.0 km/h 22.5 km/h 46 % 0.0 mm
19:32 28.9 °C 16.1 °C 1017.8 hPa NW 3.2 km/h 17.7 km/h 46 % 0.0 mm
19:37 28.7 °C 15.6 °C 1018.2 hPa WNW 8.0 km/h 16.1 km/h 45 % 0.0 mm
19:42 28.4 °C 16.0 °C 1018.2 hPa WNW 4.8 km/h 16.1 km/h 47 % 0.0 mm
19:47 28.2 °C 15.8 °C 1018.2 hPa WNW 4.8 km/h 17.7 km/h 47 % 0.0 mm
19:52 27.9 °C 15.5 °C 1018.2 hPa WNW 11.3 km/h 17.7 km/h 47 % 0.0 mm
19:57 27.7 °C 15.7 °C 1018.2 hPa WNW 4.8 km/h 17.7 km/h 48 % 0.0 mm
20:02 27.5 °C 15.5 °C 1018.5 hPa NW 6.4 km/h 16.1 km/h 48 % 0.0 mm
20:07 27.3 °C 15.3 °C 1018.5 hPa West 9.7 km/h 16.1 km/h 48 % 0.0 mm
20:12 27.1 °C 15.5 °C 1018.5 hPa West 12.9 km/h 17.7 km/h 49 % 0.0 mm
20:22 26.9 °C 15.6 °C 1018.5 hPa NW 8.0 km/h 17.7 km/h 50 % 0.0 mm
20:27 26.9 °C 15.6 °C 1018.5 hPa WNW 8.0 km/h 17.7 km/h 50 % 0.0 mm
20:32 26.9 °C 15.9 °C 1018.5 hPa West 4.8 km/h 12.9 km/h 51 % 0.0 mm
20:37 26.8 °C 15.8 °C 1018.8 hPa WNW 1.6 km/h 11.3 km/h 51 % 0.0 mm
20:42 26.6 °C 15.9 °C 1018.8 hPa NW 1.6 km/h 11.3 km/h 52 % 0.0 mm
20:47 26.3 °C 15.7 °C 1018.8 hPa NW 1.6 km/h 9.7 km/h 52 % 0.0 mm
20:52 26.2 °C 15.9 °C 1018.8 hPa West 1.6 km/h 9.7 km/h 53 % 0.0 mm
20:57 26.1 °C 16.1 °C 1018.8 hPa WNW 1.6 km/h 9.7 km/h 54 % 0.0 mm
21:02 25.8 °C 16.1 °C 1018.8 hPa WNW 3.2 km/h 9.7 km/h 55 % 0.0 mm
21:12 25.3 °C 15.9 °C 1019.2 hPa WNW 1.6 km/h 8.0 km/h 56 % 0.0 mm
21:17 25.1 °C 16.0 °C 1019.2 hPa West 3.2 km/h 8.0 km/h 57 % 0.0 mm
21:22 24.8 °C 15.7 °C 1019.5 hPa West 3.2 km/h 8.0 km/h 57 % 0.0 mm
21:32 24.4 °C 15.6 °C 1019.5 hPa WNW 4.8 km/h 8.0 km/h 58 % 0.0 mm
21:37 24.3 °C 15.5 °C 1019.5 hPa WNW 3.2 km/h 8.0 km/h 58 % 0.0 mm
21:42 24.2 °C 15.4 °C 1019.5 hPa WNW 4.8 km/h 6.4 km/h 58 % 0.0 mm
21:47 24.1 °C 15.6 °C 1019.9 hPa WNW 4.8 km/h 6.4 km/h 59 % 0.0 mm
21:52 23.9 °C 15.4 °C 1019.9 hPa WNW 1.6 km/h 6.4 km/h 59 % 0.0 mm
21:57 23.7 °C 15.5 °C 1019.9 hPa WNW 4.8 km/h 6.4 km/h 60 % 0.0 mm
22:02 23.6 °C 15.1 °C 1019.9 hPa WNW 4.8 km/h 6.4 km/h 59 % 0.0 mm
22:12 23.6 °C 15.1 °C 1020.2 hPa West 3.2 km/h 6.4 km/h 59 % 0.0 mm
22:22 23.4 °C 14.7 °C 1020.2 hPa WNW 6.4 km/h 9.7 km/h 58 % 0.0 mm
22:27 23.4 °C 14.9 °C 1020.2 hPa NNW 3.2 km/h 12.9 km/h 59 % 0.0 mm
22:32 23.1 °C 14.9 °C 1020.5 hPa WNW 1.6 km/h 12.9 km/h 60 % 0.0 mm
22:42 22.5 °C 14.9 °C 1020.5 hPa North 6.4 km/h 9.7 km/h 62 % 0.0 mm
22:47 22.2 °C 14.8 °C 1020.5 hPa NNW 6.4 km/h 8.0 km/h 63 % 0.0 mm
22:52 21.9 °C 14.5 °C 1020.9 hPa NNW 4.8 km/h 8.0 km/h 63 % 0.0 mm
22:57 21.7 °C 14.3 °C 1020.9 hPa NNW 3.2 km/h 11.3 km/h 63 % 0.0 mm
23:02 21.5 °C 14.2 °C 1020.9 hPa North 1.6 km/h 11.3 km/h 63 % 0.0 mm
23:07 21.4 °C 13.8 °C 1020.9 hPa NW 1.6 km/h 11.3 km/h 62 % 0.0 mm
23:12 21.3 °C 13.7 °C 1021.2 hPa NW 6.4 km/h 6.4 km/h 62 % 0.0 mm
23:17 21.3 °C 13.7 °C 1020.9 hPa Calm   6.4 km/h 62 % 0.0 mm
23:22 21.2 °C 13.6 °C 1020.9 hPa NW 1.6 km/h 6.4 km/h 62 % 0.0 mm
23:32 21.1 °C 13.0 °C 1021.2 hPa WNW 1.6 km/h 6.4 km/h 60 % 0.0 mm
23:37 21.1 °C 12.8 °C 1021.2 hPa NW 3.2 km/h 6.4 km/h 59 % 0.0 mm
23:42 21.1 °C 12.5 °C 1021.2 hPa NNW 1.6 km/h 6.4 km/h 58 % 0.0 mm
23:47 21.1 °C 12.0 °C 1021.2 hPa NW 4.8 km/h 6.4 km/h 56 % 0.0 mm
23:52 20.9 °C 11.8 °C 1021.2 hPa NNW 3.2 km/h 6.4 km/h 56 % 0.0 mm
23:57 20.9 °C 11.5 °C 1021.2 hPa NW 1.6 km/h 9.7 km/h 55 % 0.0 mm
Meteo18
Compliments of Weather Underground - 4 mb

Script developed by  Jim McMurry - jmcmurry@mwt.net Adapted for the template by  Wim van der Kuil - Leuven-Template.eu

You find our weather info also at:

European Weather Network

Weather Underground

Equipment we use:

Weather-station
Davis Vue

Weather-program
Meteohub

Weather-server
Raspberry PI 2 B+

Provider
1 and 1

Davis Vue

Meteohub

Raspberry PI 2 B+

1 and 1